Time;durP1;ratioP1;P1;durP2;ratioP2;P2;SDS_P1;SDS_P2;PMS_P1;PMS_P2;Temp;Humidity;BMP_temperature;BMP_pressure;BME280_temperature;BME280_humidity;BME280_pressure;Samples;Min_cycle;Max_cycle;Signal;HPM_P1;HPM_P2
2021/07/23 00:00:55;;;;;;;7.07;4.72;;;16.90;99.90;;;;;;5057175;28;20056;-47
2021/07/23 00:03:20;;;;;;;6.43;4.70;;;16.90;99.90;;;;;;5054039;28;20086;-49
2021/07/23 00:05:46;;;;;;;9.40;5.28;;;16.90;99.90;;;;;;5059885;28;20052;-46
2021/07/23 00:08:12;;;;;;;5.32;4.60;;;16.90;99.90;;;;;;5053718;28;20044;-46
2021/07/23 00:10:39;;;;;;;10.50;5.18;;;16.90;99.90;;;;;;5064380;28;20021;-47
2021/07/23 00:13:04;;;;;;;8.05;4.60;;;16.90;99.90;;;;;;5050146;28;20019;-47
2021/07/23 00:15:30;;;;;;;5.78;4.22;;;16.90;99.90;;;;;;5039234;28;20033;-46
2021/07/23 00:17:55;;;;;;;8.05;4.55;;;16.90;99.90;;;;;;5043306;28;20021;-48
2021/07/23 00:20:21;;;;;;;8.38;4.22;;;16.80;99.90;;;;;;5047618;28;20630;-47
2021/07/23 00:22:46;;;;;;;5.18;4.40;;;16.80;99.90;;;;;;5051189;28;20028;-46
2021/07/23 00:25:12;;;;;;;6.93;4.13;;;16.80;99.90;;;;;;5044907;28;20028;-49
2021/07/23 00:27:38;;;;;;;10.88;4.93;;;16.80;99.90;;;;;;5045204;28;20060;-46
2021/07/23 00:30:05;;;;;;;8.80;4.47;;;16.70;99.90;;;;;;5051598;28;20037;-46
2021/07/23 00:32:30;;;;;;;7.68;4.25;;;16.70;99.90;;;;;;5049305;28;20028;-47
2021/07/23 00:34:56;;;;;;;9.25;4.30;;;16.70;99.90;;;;;;5049414;28;20056;-48
2021/07/23 00:37:21;;;;;;;10.23;5.38;;;16.70;99.90;;;;;;5039108;28;20156;-49
2021/07/23 00:39:47;;;;;;;11.52;4.80;;;16.60;99.90;;;;;;5038588;28;20431;-46
2021/07/23 00:42:12;;;;;;;7.13;4.18;;;16.60;99.90;;;;;;5045135;28;20033;-46
2021/07/23 00:44:38;;;;;;;13.45;4.72;;;16.60;99.90;;;;;;5044861;28;20055;-47
2021/07/23 00:47:04;;;;;;;7.28;4.70;;;16.60;99.90;;;;;;5051782;28;20211;-47
2021/07/23 00:49:30;;;;;;;9.55;4.75;;;16.50;99.90;;;;;;5044544;28;20025;-46
2021/07/23 00:51:56;;;;;;;7.55;4.30;;;16.50;99.90;;;;;;5057312;28;20177;-46
2021/07/23 00:54:23;;;;;;;7.05;3.95;;;16.40;99.90;;;;;;5038425;28;20100;-47
2021/07/23 00:56:49;;;;;;;6.45;4.05;;;16.40;99.90;;;;;;5043346;28;20378;-46
2021/07/23 00:59:16;;;;;;;6.85;4.40;;;16.40;99.90;;;;;;5045174;28;20035;-47
2021/07/23 01:01:43;;;;;;;10.43;5.10;;;16.30;99.90;;;;;;5042180;28;20132;-49
2021/07/23 01:04:09;;;;;;;9.07;4.05;;;16.30;99.90;;;;;;5049746;28;20033;-46
2021/07/23 01:06:37;;;;;;;8.13;5.32;;;16.30;99.90;;;;;;5044666;28;20020;-46
2021/07/23 01:09:03;;;;;;;11.98;5.15;;;16.30;99.90;;;;;;5056829;28;20044;-46
2021/07/23 01:11:29;;;;;;;8.02;5.30;;;16.20;99.90;;;;;;5036331;28;20071;-47
2021/07/23 01:13:55;;;;;;;10.15;5.25;;;16.20;99.90;;;;;;5043431;28;20051;-47
2021/07/23 01:16:21;;;;;;;8.13;5.22;;;16.20;99.90;;;;;;5050007;28;20032;-47
2021/07/23 01:18:47;;;;;;;9.88;5.03;;;16.20;99.90;;;;;;5064106;28;20047;-45
2021/07/23 01:21:13;;;;;;;11.40;5.10;;;16.20;99.90;;;;;;5060291;28;20021;-45
2021/07/23 01:23:41;;;;;;;9.63;5.18;;;16.10;99.90;;;;;;5060827;28;20508;-46
2021/07/23 01:26:06;;;;;;;7.57;5.32;;;16.10;99.90;;;;;;5055477;28;20078;-46
2021/07/23 01:28:34;;;;;;;9.52;5.40;;;16.00;99.90;;;;;;5060902;28;20436;-46
2021/07/23 01:31:01;;;;;;;8.32;5.35;;;16.00;99.90;;;;;;5063729;28;20080;-47
2021/07/23 01:33:28;;;;;;;9.07;5.82;;;15.90;99.90;;;;;;5059290;28;20052;-47
2021/07/23 01:35:53;;;;;;;14.45;6.50;;;15.90;99.90;;;;;;5045712;28;20021;-47
2021/07/23 01:38:22;;;;;;;10.23;5.90;;;15.80;99.90;;;;;;5060340;28;20025;-46
2021/07/23 01:40:48;;;;;;;7.82;6.15;;;15.80;99.90;;;;;;5063038;28;20426;-46
2021/07/23 01:43:15;;;;;;;12.65;6.57;;;15.80;99.90;;;;;;5051137;28;20545;-45
2021/07/23 01:45:41;;;;;;;11.02;6.03;;;15.80;99.90;;;;;;5061802;28;20107;-46
2021/07/23 01:48:07;;;;;;;11.25;6.13;;;15.70;99.90;;;;;;5056226;28;20020;-47
2021/07/23 01:50:32;;;;;;;7.65;6.43;;;15.70;99.90;;;;;;5061729;28;20394;-46
2021/07/23 01:52:58;;;;;;;10.38;6.35;;;15.70;99.90;;;;;;5058770;28;20112;-46
2021/07/23 01:55:23;;;;;;;13.15;6.68;;;15.70;99.90;;;;;;5055189;28;20171;-46
2021/07/23 01:57:49;;;;;;;8.98;6.53;;;15.70;99.90;;;;;;5062338;28;20032;-46
2021/07/23 02:00:14;;;;;;;9.38;7.20;;;15.70;99.90;;;;;;5055979;28;20505;-47
2021/07/23 02:02:40;;;;;;;9.63;6.25;;;15.70;99.90;;;;;;5047674;28;20102;-49
2021/07/23 02:05:06;;;;;;;9.43;6.65;;;15.60;99.90;;;;;;5063764;28;20029;-50
2021/07/23 02:07:32;;;;;;;8.77;6.68;;;15.60;99.90;;;;;;5061933;28;20497;-46
2021/07/23 02:09:57;;;;;;;14.10;7.60;;;15.60;99.90;;;;;;5058528;28;20033;-46
2021/07/23 02:12:23;;;;;;;13.25;7.35;;;15.60;99.90;;;;;;5056106;28;20029;-49
2021/07/23 02:14:48;;;;;;;10.15;7.10;;;15.50;99.90;;;;;;5061816;28;20150;-46
2021/07/23 02:17:14;;;;;;;10.00;7.10;;;15.50;99.90;;;;;;5042524;28;20505;-46
2021/07/23 02:19:40;;;;;;;11.68;6.60;;;15.50;99.90;;;;;;5061908;28;20028;-48
2021/07/23 02:22:06;;;;;;;13.25;8.27;;;15.50;99.90;;;;;;5056626;28;20520;-46
2021/07/23 02:24:31;;;;;;;11.90;8.00;;;15.40;99.90;;;;;;5060770;28;20024;-48
2021/07/23 02:26:57;;;;;;;18.52;6.63;;;15.30;99.90;;;;;;5058335;28;20047;-47
2021/07/23 02:29:23;;;;;;;9.63;7.07;;;15.30;99.90;;;;;;5062643;28;20039;-46
2021/07/23 02:31:48;;;;;;;8.77;6.25;;;15.20;99.90;;;;;;5055558;28;20047;-46
2021/07/23 02:34:14;;;;;;;13.77;7.65;;;15.20;99.90;;;;;;5062303;28;20021;-48
2021/07/23 02:36:39;;;;;;;13.57;7.05;;;15.10;99.90;;;;;;5055759;28;20461;-48
2021/07/23 02:39:05;;;;;;;10.48;7.05;;;15.10;99.90;;;;;;5057675;28;20445;-47
2021/07/23 02:41:30;;;;;;;8.60;6.40;;;15.10;99.90;;;;;;5049605;28;20368;-46
2021/07/23 02:43:56;;;;;;;12.80;6.35;;;15.00;99.90;;;;;;5057614;28;20013;-46
2021/07/23 02:46:21;;;;;;;10.65;6.35;;;15.00;99.90;;;;;;5057348;28;20029;-46
2021/07/23 02:48:47;;;;;;;7.72;5.82;;;14.90;99.90;;;;;;5058617;28;20044;-47
2021/07/23 02:51:13;;;;;;;7.72;6.53;;;14.90;99.90;;;;;;5060877;28;20498;-49
2021/07/23 02:53:38;;;;;;;12.30;7.25;;;14.80;99.90;;;;;;5034749;28;20100;-48
2021/07/23 02:56:04;;;;;;;12.23;7.53;;;14.80;99.90;;;;;;5041179;28;20109;-47
2021/07/23 02:58:30;;;;;;;15.38;7.78;;;14.70;99.90;;;;;;5046305;28;20772;-46
2021/07/23 03:00:56;;;;;;;10.07;6.95;;;14.60;99.90;;;;;;5046535;28;20060;-46
2021/07/23 03:03:21;;;;;;;11.20;6.95;;;14.60;99.90;;;;;;5052663;28;20021;-46
2021/07/23 03:05:46;;;;;;;11.32;7.25;;;14.60;99.90;;;;;;5051235;28;20431;-46
2021/07/23 03:08:12;;;;;;;9.13;6.80;;;14.60;99.90;;;;;;5055196;28;20064;-49
2021/07/23 03:10:37;;;;;;;7.22;5.85;;;14.60;99.90;;;;;;5056049;28;20032;-46
2021/07/23 03:13:03;;;;;;;9.23;7.13;;;14.60;99.90;;;;;;5050865;28;20021;-47
2021/07/23 03:15:29;;;;;;;14.88;6.88;;;14.60;99.90;;;;;;5063012;28;20025;-46
2021/07/23 03:17:54;;;;;;;12.82;7.40;;;14.60;99.90;;;;;;5055949;28;20496;-46
2021/07/23 03:20:20;;;;;;;10.95;6.43;;;14.60;99.90;;;;;;5057506;28;20028;-46
2021/07/23 03:22:45;;;;;;;14.43;7.00;;;14.60;99.90;;;;;;5061826;28;20099;-47
2021/07/23 03:25:11;;;;;;;9.85;6.70;;;14.60;99.90;;;;;;5060749;28;20021;-46
2021/07/23 03:27:38;;;;;;;13.27;7.65;;;14.50;99.90;;;;;;5060675;28;20029;-46
2021/07/23 03:30:04;;;;;;;10.75;6.65;;;14.50;99.90;;;;;;5050448;28;20032;-48
2021/07/23 03:32:30;;;;;;;13.75;6.43;;;14.40;99.90;;;;;;5034169;28;20026;-48
2021/07/23 03:34:55;;;;;;;10.27;6.63;;;14.40;99.90;;;;;;5029910;28;20110;-48
2021/07/23 03:37:21;;;;;;;8.68;7.05;;;14.40;99.90;;;;;;5037847;28;20426;-46
2021/07/23 03:39:46;;;;;;;12.07;6.53;;;14.40;99.90;;;;;;5031510;28;20044;-47
2021/07/23 03:42:12;;;;;;;10.05;6.05;;;14.40;99.90;;;;;;5041260;28;20021;-45
2021/07/23 03:44:37;;;;;;;10.23;7.03;;;14.40;99.90;;;;;;5034747;28;20029;-47
2021/07/23 03:47:03;;;;;;;10.65;6.65;;;14.30;99.90;;;;;;5036454;28;20033;-47
2021/07/23 03:49:29;;;;;;;10.70;6.35;;;14.30;99.90;;;;;;5037716;28;20056;-47
2021/07/23 03:51:56;;;;;;;10.15;7.03;;;14.30;99.90;;;;;;5037041;28;20098;-46
2021/07/23 03:54:21;;;;;;;9.82;6.05;;;14.40;99.90;;;;;;5038456;28;20025;-46
2021/07/23 03:56:47;;;;;;;10.65;6.82;;;14.40;99.90;;;;;;5035787;28;20043;-46
2021/07/23 03:59:12;;;;;;;11.05;7.20;;;14.40;99.90;;;;;;5039678;28;20136;-46
2021/07/23 04:01:39;;;;;;;10.13;6.50;;;14.40;99.90;;;;;;5033352;28;20235;-46
2021/07/23 04:04:05;;;;;;;10.65;6.47;;;14.40;99.90;;;;;;5041871;28;20458;-46
2021/07/23 04:06:30;;;;;;;14.70;6.57;;;14.40;99.90;;;;;;5038767;28;20021;-46
2021/07/23 04:08:56;;;;;;;12.20;7.25;;;14.40;99.90;;;;;;5039712;28;20499;-46
2021/07/23 04:11:27;;;;;;;11.30;6.72;;;14.40;99.90;;;;;;5037592;28;20048;-46
2021/07/23 04:13:53;;;;;;;10.68;6.63;;;14.50;99.90;;;;;;5033202;28;20104;-50
2021/07/23 04:16:18;;;;;;;16.00;6.43;;;14.50;99.90;;;;;;5037002;28;20123;-47
2021/07/23 04:18:44;;;;;;;8.82;6.55;;;14.50;99.90;;;;;;5036161;28;20029;-47
2021/07/23 04:21:09;;;;;;;9.98;6.65;;;14.40;99.90;;;;;;5053049;28;20033;-46
2021/07/23 04:23:35;;;;;;;10.80;7.38;;;14.40;99.90;;;;;;5046781;28;20037;-50
2021/07/23 04:26:00;;;;;;;12.40;7.47;;;14.30;99.90;;;;;;5048155;28;20032;-48
2021/07/23 04:28:26;;;;;;;9.77;6.85;;;14.30;99.90;;;;;;5051054;28;20100;-46
2021/07/23 04:30:51;;;;;;;13.80;7.78;;;14.30;99.90;;;;;;5040614;28;20021;-45
2021/07/23 04:33:17;;;;;;;11.23;7.22;;;14.30;99.90;;;;;;5056746;28;20043;-47
2021/07/23 04:35:42;;;;;;;8.43;6.75;;;14.20;99.90;;;;;;5043359;28;20136;-46
2021/07/23 04:38:08;;;;;;;19.77;7.45;;;14.30;99.90;;;;;;5047015;28;20587;-46
2021/07/23 04:40:36;;;;;;;11.63;7.68;;;14.30;99.90;;;;;;5047169;28;20036;-46
2021/07/23 04:43:01;;;;;;;11.48;7.28;;;14.30;99.90;;;;;;5051566;28;20055;-46
2021/07/23 04:45:27;;;;;;;8.23;6.60;;;14.40;99.90;;;;;;5038770;28;20060;-47
2021/07/23 04:47:52;;;;;;;10.52;7.63;;;14.50;99.90;;;;;;5033026;28;20559;-47
2021/07/23 04:50:18;;;;;;;9.85;6.80;;;14.60;99.90;;;;;;5033918;28;20029;-46
2021/07/23 04:52:43;;;;;;;9.82;5.65;;;14.60;99.90;;;;;;5032629;28;20057;-47
2021/07/23 04:55:09;;;;;;;12.68;6.47;;;14.70;99.90;;;;;;5033849;28;20483;-47
2021/07/23 04:57:44;;;;;;;10.45;6.38;;;14.80;99.90;;;;;;5050225;28;20020;-47
2021/07/23 05:00:10;;;;;;;13.63;7.20;;;14.80;99.90;;;;;;5048495;28;20018;-46
2021/07/23 05:02:37;;;;;;;7.50;5.90;;;14.80;99.90;;;;;;5051703;28;20086;-47
2021/07/23 05:05:05;;;;;;;7.60;6.00;;;14.90;99.90;;;;;;5054245;28;20035;-47
2021/07/23 05:07:31;;;;;;;14.27;7.50;;;14.90;99.90;;;;;;5052331;28;20052;-48
2021/07/23 05:09:56;;;;;;;8.10;6.32;;;14.90;99.90;;;;;;5055779;28;20474;-47
2021/07/23 05:12:23;;;;;;;17.02;7.45;;;14.90;99.90;;;;;;5043487;28;20022;-46
2021/07/23 05:14:48;;;;;;;13.40;6.50;;;14.90;99.90;;;;;;5053334;28;20013;-47
2021/07/23 05:17:14;;;;;;;12.15;6.38;;;15.00;99.90;;;;;;5048219;28;20036;-47
2021/07/23 05:19:41;;;;;;;10.02;6.25;;;14.90;99.90;;;;;;5058434;28;20174;-50
2021/07/23 05:22:06;;;;;;;8.55;5.50;;;15.00;99.90;;;;;;5060258;28;20033;-49
2021/07/23 05:24:32;;;;;;;9.15;5.95;;;15.00;99.90;;;;;;5047872;28;20059;-46
2021/07/23 05:26:59;;;;;;;10.30;6.57;;;15.10;99.90;;;;;;5035253;28;20033;-47
2021/07/23 05:29:24;;;;;;;9.82;6.28;;;15.10;99.90;;;;;;5055548;28;20087;-48
2021/07/23 05:31:50;;;;;;;10.23;6.47;;;15.10;99.90;;;;;;5037358;28;20071;-47
2021/07/23 05:34:15;;;;;;;14.30;6.45;;;15.20;99.90;;;;;;5061731;28;20631;-46
2021/07/23 05:36:41;;;;;;;13.50;6.35;;;15.10;99.90;;;;;;5043449;28;20625;-48
2021/07/23 05:39:09;;;;;;;8.35;6.13;;;15.20;99.90;;;;;;5052842;28;20036;-47
2021/07/23 05:41:35;;;;;;;6.82;5.88;;;15.20;99.90;;;;;;5047741;28;20111;-49
2021/07/23 05:44:01;;;;;;;10.02;6.38;;;15.20;99.90;;;;;;5048780;28;20092;-47
2021/07/23 05:46:27;;;;;;;14.50;6.95;;;15.30;99.90;;;;;;5053521;28;20139;-49
2021/07/23 05:48:52;;;;;;;7.75;5.72;;;15.30;99.90;;;;;;5048150;28;20585;-48
2021/07/23 05:51:18;;;;;;;10.68;6.28;;;15.30;99.90;;;;;;5054163;28;20108;-48
2021/07/23 05:53:43;;;;;;;9.38;5.72;;;15.40;99.90;;;;;;5039936;28;20691;-48
2021/07/23 05:56:09;;;;;;;11.65;5.35;;;15.40;99.90;;;;;;5051409;28;20045;-50
2021/07/23 05:58:35;;;;;;;10.30;6.07;;;15.40;99.90;;;;;;5048034;28;20391;-50
2021/07/23 06:01:05;;;;;;;9.32;5.45;;;15.50;99.90;;;;;;5049775;28;20079;-48
2021/07/23 06:03:31;;;;;;;12.77;5.70;;;15.50;99.90;;;;;;5053435;28;20098;-49
2021/07/23 06:05:56;;;;;;;11.00;6.47;;;15.50;99.90;;;;;;5047667;28;20487;-49
2021/07/23 06:08:22;;;;;;;10.10;5.40;;;15.50;99.90;;;;;;5051837;28;20068;-47
2021/07/23 06:10:47;;;;;;;13.90;6.13;;;15.70;99.90;;;;;;5038818;28;20026;-46
2021/07/23 06:13:13;;;;;;;7.15;5.38;;;15.60;99.90;;;;;;5051864;28;20116;-46
2021/07/23 06:15:38;;;;;;;10.43;5.93;;;15.60;99.90;;;;;;5045003;28;20020;-46
2021/07/23 06:18:04;;;;;;;7.97;5.57;;;15.60;99.90;;;;;;5037682;28;20087;-47
2021/07/23 06:20:29;;;;;;;7.32;5.05;;;15.70;99.90;;;;;;5056660;28;20047;-46
2021/07/23 06:22:55;;;;;;;7.55;5.20;;;15.70;99.90;;;;;;5047305;28;20025;-49
2021/07/23 06:25:22;;;;;;;14.98;6.43;;;15.80;99.90;;;;;;5057951;28;20019;-47
2021/07/23 06:27:48;;;;;;;12.52;6.43;;;15.90;99.90;;;;;;5050036;28;20025;-51
2021/07/23 06:30:15;;;;;;;8.65;5.70;;;15.90;99.90;;;;;;5059427;28;20053;-47
2021/07/23 06:32:40;;;;;;;12.63;6.43;;;16.00;99.90;;;;;;5057556;28;20031;-48
2021/07/23 06:35:06;;;;;;;10.27;5.63;;;16.10;99.90;;;;;;5053713;28;20025;-47
2021/07/23 06:37:32;;;;;;;7.55;5.35;;;16.10;99.90;;;;;;5042568;28;20021;-48
2021/07/23 06:39:57;;;;;;;11.52;6.10;;;16.20;99.90;;;;;;5047994;28;20705;-47
2021/07/23 06:42:24;;;;;;;12.15;5.75;;;16.30;99.90;;;;;;5058296;28;20036;-48
2021/07/23 06:44:53;;;;;;;8.80;5.65;;;16.30;99.90;;;;;;5053133;28;20040;-46
2021/07/23 06:47:19;;;;;;;8.98;5.68;;;16.30;99.90;;;;;;5047641;28;20036;-49
2021/07/23 06:49:45;;;;;;;9.65;5.57;;;16.50;99.90;;;;;;5042076;28;20379;-50
2021/07/23 06:52:10;;;;;;;8.48;5.82;;;16.50;99.90;;;;;;5062915;28;20022;-47
2021/07/23 06:54:36;;;;;;;16.00;5.72;;;16.60;99.90;;;;;;5055703;28;20036;-48
2021/07/23 06:57:04;;;;;;;8.23;5.45;;;16.70;99.90;;;;;;5046381;28;20080;-47
2021/07/23 06:59:31;;;;;;;8.98;6.18;;;16.80;99.90;;;;;;5061423;28;20070;-50
2021/07/23 07:01:58;;;;;;;10.30;5.40;;;16.80;99.90;;;;;;5043477;28;20022;-47
2021/07/23 07:04:24;;;;;;;7.88;4.88;;;16.80;99.90;;;;;;5062182;28;20032;-47
2021/07/23 07:06:49;;;;;;;8.07;4.60;;;16.90;99.90;;;;;;5055853;28;20040;-49
2021/07/23 07:09:15;;;;;;;8.07;5.10;;;17.00;99.90;;;;;;5058130;28;20032;-47
2021/07/23 07:11:40;;;;;;;10.82;4.97;;;17.20;99.90;;;;;;5053766;28;20017;-47
2021/07/23 07:14:06;;;;;;;6.93;4.13;;;17.20;99.90;;;;;;5051153;28;20356;-49
2021/07/23 07:16:31;;;;;;;12.88;4.88;;;17.30;99.90;;;;;;5040566;28;20047;-49
2021/07/23 07:18:57;;;;;;;7.65;4.35;;;17.40;99.90;;;;;;5038316;28;20029;-48
2021/07/23 07:21:22;;;;;;;5.05;3.97;;;17.40;99.90;;;;;;5049013;28;20021;-47
2021/07/23 07:23:48;;;;;;;9.45;4.10;;;17.40;99.90;;;;;;5047491;28;20029;-48
2021/07/23 07:26:13;;;;;;;10.13;5.05;;;17.50;99.90;;;;;;5048898;28;20527;-49
2021/07/23 07:28:39;;;;;;;6.78;4.43;;;17.60;99.90;;;;;;5039627;28;20052;-47
2021/07/23 07:31:04;;;;;;;6.53;4.22;;;17.60;99.90;;;;;;5044386;28;20116;-49
2021/07/23 07:33:30;;;;;;;7.82;4.43;;;17.70;99.90;;;;;;5049500;28;20494;-48
2021/07/23 07:35:56;;;;;;;7.82;3.55;;;17.80;99.90;;;;;;5038379;28;20053;-47
2021/07/23 07:38:21;;;;;;;13.73;4.70;;;18.00;99.90;;;;;;5042457;28;20263;-48
2021/07/23 07:40:47;;;;;;;8.88;4.45;;;18.00;99.90;;;;;;5039380;28;20495;-51
2021/07/23 07:43:12;;;;;;;9.75;5.07;;;18.10;99.90;;;;;;5043000;28;20073;-49
2021/07/23 07:45:38;;;;;;;9.23;4.50;;;18.20;99.90;;;;;;5035860;28;20487;-47
2021/07/23 07:48:04;;;;;;;9.85;4.78;;;18.40;99.90;;;;;;5036264;28;20029;-49
2021/07/23 07:50:30;;;;;;;6.68;4.43;;;18.40;99.90;;;;;;5030912;28;20068;-48
2021/07/23 07:52:56;;;;;;;8.05;4.50;;;18.40;99.90;;;;;;5032530;28;20033;-48
2021/07/23 07:55:22;;;;;;;9.25;3.72;;;18.70;99.90;;;;;;5032259;28;20018;-49
2021/07/23 07:57:47;;;;;;;8.13;4.63;;;18.80;99.90;;;;;;5030942;28;20387;-49
2021/07/23 08:00:13;;;;;;;8.90;4.50;;;18.90;99.90;;;;;;5034475;28;20092;-48
2021/07/23 08:02:38;;;;;;;10.10;4.63;;;19.00;99.90;;;;;;5036551;28;20036;-47
2021/07/23 08:05:05;;;;;;;8.18;3.85;;;19.10;99.90;;;;;;5033832;28;20477;-47
2021/07/23 08:07:33;;;;;;;7.70;4.70;;;19.30;99.90;;;;;;5031853;28;20029;-47
2021/07/23 08:10:02;;;;;;;5.40;4.18;;;19.50;99.90;;;;;;5033691;28;20023;-49
2021/07/23 08:12:30;;;;;;;8.75;4.30;;;19.60;99.90;;;;;;5031332;28;20030;-48
2021/07/23 08:14:56;;;;;;;7.55;4.20;;;19.70;99.90;;;;;;5055252;28;20062;-49
2021/07/23 08:17:22;;;;;;;7.05;3.85;;;19.80;99.90;;;;;;5040792;28;20495;-48
2021/07/23 08:19:48;;;;;;;9.45;3.90;;;20.00;99.90;;;;;;5061598;28;20036;-50
2021/07/23 08:22:14;;;;;;;8.80;3.80;;;20.20;98.70;;;;;;5053157;28;20029;-48
2021/07/23 08:24:40;;;;;;;6.82;3.63;;;20.50;99.90;;;;;;5064046;28;20040;-50
2021/07/23 08:27:05;;;;;;;6.45;3.83;;;20.70;99.20;;;;;;5059161;28;20553;-48
2021/07/23 08:29:31;;;;;;;3.65;2.95;;;21.10;98.90;;;;;;5062470;28;20037;-48
2021/07/23 08:32:11;;;;;;;6.75;3.28;;;21.80;97.50;;;;;;5054890;28;20027;-48
2021/07/23 08:34:37;;;;;;;6.43;4.07;;;22.80;96.20;;;;;;5066659;28;20020;-48
2021/07/23 08:37:03;;;;;;;7.60;3.80;;;24.20;93.70;;;;;;5036050;28;20267;-46
2021/07/23 08:39:29;;;;;;;10.68;3.00;;;25.60;91.70;;;;;;5035234;28;20507;-47
2021/07/23 08:41:55;;;;;;;4.28;2.40;;;26.60;84.10;;;;;;5035100;28;20028;-46
2021/07/23 08:44:22;;;;;;;4.60;3.08;;;27.30;78.80;;;;;;5035452;28;20024;-47
2021/07/23 08:46:49;;;;;;;5.68;3.22;;;28.00;72.90;;;;;;5027676;28;20466;-47
2021/07/23 08:49:15;;;;;;;2.92;2.55;;;28.30;67.20;;;;;;5029070;28;20541;-48
2021/07/23 08:51:48;;;;;;;4.10;2.80;;;29.10;67.60;;;;;;5027254;28;20122;-49
2021/07/23 08:54:14;;;;;;;3.45;2.60;;;30.00;63.40;;;;;;5030861;28;20184;-48
2021/07/23 08:56:45;;;;;;;4.63;2.80;;;30.20;59.80;;;;;;5030867;28;20037;-49
2021/07/23 08:59:10;;;;;;;5.57;2.65;;;29.70;59.20;;;;;;5032276;28;20056;-48
2021/07/23 09:01:59;;;;;;;5.45;2.83;;;30.20;58.40;;;;;;5031056;28;20030;-47
2021/07/23 09:04:31;;;;;;;6.85;2.58;;;30.50;59.00;;;;;;5029861;28;20018;-49
2021/07/23 09:07:12;;;;;;;6.10;2.97;;;31.00;56.40;;;;;;5030251;28;20535;-49
2021/07/23 09:09:41;;;;;;;2.90;2.40;;;30.50;57.00;;;;;;5029563;28;20035;-47
2021/07/23 09:12:07;;;;;;;3.60;2.40;;;31.00;58.10;;;;;;5031495;28;20021;-48
2021/07/23 09:14:33;;;;;;;4.78;2.90;;;32.40;55.50;;;;;;5028261;28;20026;-49
2021/07/23 09:16:58;;;;;;;2.53;2.30;;;32.30;50.60;;;;;;5032792;28;20080;-47
2021/07/23 09:19:24;;;;;;;5.30;2.83;;;32.10;52.60;;;;;;5030254;28;20029;-49
2021/07/23 09:21:57;;;;;;;3.38;2.63;;;32.00;54.50;;;;;;5029197;28;20388;-47
2021/07/23 09:24:24;;;;;;;4.15;2.60;;;31.50;51.70;;;;;;5029392;28;20032;-47
2021/07/23 09:26:50;;;;;;;4.90;2.42;;;30.80;55.90;;;;;;5046975;28;20026;-49
2021/07/23 09:29:16;;;;;;;3.53;2.53;;;31.60;51.80;;;;;;5055910;28;20474;-49
2021/07/23 09:32:07;;;;;;;2.88;2.45;;;32.70;51.70;;;;;;5050829;28;20053;-47
2021/07/23 09:34:33;;;;;;;3.47;2.50;;;33.10;50.60;;;;;;5044312;28;20047;-47
2021/07/23 09:37:11;;;;;;;5.22;2.78;;;32.90;48.80;;;;;;5044888;28;20498;-50
2021/07/23 09:39:40;;;;;;;3.25;2.13;;;33.20;49.90;;;;;;5035466;28;20037;-49
2021/07/23 09:42:06;;;;;;;4.75;2.88;;;33.60;49.50;;;;;;5037729;28;20095;-48
2021/07/23 09:44:31;;;;;;;2.95;2.20;;;34.00;47.10;;;;;;5032763;28;20034;-50
2021/07/23 09:46:57;;;;;;;2.88;2.33;;;34.20;45.60;;;;;;5034303;28;20081;-48
2021/07/23 09:49:28;;;;;;;4.53;2.63;;;34.10;45.60;;;;;;5027214;28;20036;-48
2021/07/23 09:51:55;;;;;;;4.93;2.45;;;34.10;47.90;;;;;;5027265;28;20115;-49
2021/07/23 09:54:21;;;;;;;5.43;2.45;;;34.40;48.30;;;;;;5030005;28;20060;-48
2021/07/23 09:56:49;;;;;;;3.28;2.60;;;33.70;46.40;;;;;;5035196;28;20021;-49
2021/07/23 09:59:52;;;;;;;4.82;3.10;;;34.30;47.00;;;;;;5045196;28;20484;-47
2021/07/23 10:02:22;;;;;;;4.72;2.80;;;34.30;46.10;;;;;;5038745;28;20039;-48
2021/07/23 10:05:01;;;;;;;5.03;2.67;;;34.70;45.50;;;;;;5044368;28;20156;-49
2021/07/23 10:07:33;;;;;;;2.65;2.40;;;35.10;46.40;;;;;;5040913;28;20025;-48
2021/07/23 10:09:59;;;;;;;3.88;2.25;;;35.50;46.40;;;;;;5048207;28;20442;-48
2021/07/23 10:12:25;;;;;;;5.07;2.75;;;36.00;42.80;;;;;;5047328;28;20024;-50
2021/07/23 10:14:52;;;;;;;3.67;2.45;;;34.70;42.00;;;;;;5041268;28;20047;-48
2021/07/23 10:17:18;;;;;;;3.00;2.53;;;34.10;44.60;;;;;;5042499;28;20020;-49
2021/07/23 10:19:45;;;;;;;4.82;2.20;;;34.30;42.70;;;;;;5042024;28;20033;-50
2021/07/23 10:22:13;;;;;;;2.42;2.22;;;33.30;46.50;;;;;;5043195;28;20021;-47
2021/07/23 10:24:41;;;;;;;2.43;2.20;;;34.10;45.10;;;;;;5041768;28;20096;-49
2021/07/23 10:27:08;;;;;;;2.38;2.00;;;34.70;45.60;;;;;;5041463;28;20083;-49
2021/07/23 10:29:47;;;;;;;3.55;2.50;;;34.90;45.10;;;;;;5041812;28;20036;-49
2021/07/23 10:32:27;;;;;;;5.57;2.90;;;35.10;44.40;;;;;;5045460;28;20016;-48
2021/07/23 10:34:55;;;;;;;3.30;2.20;;;34.80;44.70;;;;;;5036261;28;20028;-49
2021/07/23 10:37:30;;;;;;;3.25;2.38;;;33.90;44.80;;;;;;5039088;28;20051;-51
2021/07/23 10:40:08;;;;;;;3.67;2.45;;;34.00;44.70;;;;;;5037214;28;20063;-49
2021/07/23 10:42:36;;;;;;;3.22;2.55;;;34.40;44.20;;;;;;5040772;28;20029;-49
2021/07/23 10:45:04;;;;;;;4.18;2.33;;;34.60;44.80;;;;;;5041409;28;20025;-50
2021/07/23 10:47:46;;;;;;;4.47;2.30;;;34.30;43.90;;;;;;5041698;28;20367;-49
2021/07/23 10:50:12;;;;;;;2.67;1.88;;;34.40;45.20;;;;;;5038915;28;20053;-50
2021/07/23 10:52:38;;;;;;;3.10;2.25;;;34.40;44.20;;;;;;5031188;28;20139;-49
2021/07/23 10:55:17;;;;;;;2.95;2.65;;;34.60;43.70;;;;;;5038380;28;20029;-49
2021/07/23 10:57:43;;;;;;;5.85;2.00;;;34.00;44.70;;;;;;5050375;28;20574;-48
2021/07/23 11:00:11;;;;;;;3.03;2.00;;;33.90;46.00;;;;;;5052245;28;20087;-49
2021/07/23 11:02:36;;;;;;;2.92;2.22;;;34.50;45.80;;;;;;5056602;28;20032;-49
2021/07/23 11:05:08;;;;;;;2.58;2.10;;;35.10;42.80;;;;;;5056017;28;20021;-49
2021/07/23 11:07:35;;;;;;;10.80;7.13;;;34.80;43.70;;;;;;5031577;28;20111;-48
2021/07/23 11:10:00;;;;;;;3.00;2.17;;;34.60;45.70;;;;;;5040439;28;20022;-51
2021/07/23 11:12:28;;;;;;;3.35;2.13;;;34.20;47.10;;;;;;5036592;28;20021;-50
2021/07/23 11:14:57;;;;;;;3.58;2.28;;;33.60;46.40;;;;;;5038797;28;20025;-48
2021/07/23 11:17:23;;;;;;;2.28;2.08;;;33.10;47.30;;;;;;5039755;28;20031;-48
2021/07/23 11:20:01;;;;;;;5.28;2.55;;;32.80;49.30;;;;;;5036732;28;20561;-47
2021/07/23 11:22:30;;;;;;;2.60;2.25;;;32.80;47.00;;;;;;5035775;28;20021;-50
2021/07/23 11:25:07;;;;;;;2.25;2.00;;;33.90;46.70;;;;;;5035997;28;20571;-48
2021/07/23 11:27:38;;;;;;;4.25;2.00;;;34.70;47.10;;;;;;5044440;28;20039;-49
2021/07/23 11:30:14;;;;;;;2.13;1.92;;;33.90;44.80;;;;;;5038608;28;20368;-48
2021/07/23 11:32:56;;;;;;;1.65;1.55;;;34.10;45.70;;;;;;5036814;28;20064;-47
2021/07/23 11:35:26;;;;;;;2.75;2.03;;;33.40;46.00;;;;;;5036049;28;20025;-49
2021/07/23 11:37:53;;;;;;;1.80;1.70;;;33.70;49.10;;;;;;5036724;28;20013;-50
2021/07/23 11:40:22;;;;;;;2.13;1.70;;;34.00;47.80;;;;;;5037483;28;20570;-48
2021/07/23 11:42:53;;;;;;;2.58;1.92;;;34.10;47.20;;;;;;5036661;28;20088;-50
2021/07/23 11:45:38;;;;;;;4.53;2.13;;;34.00;46.60;;;;;;5038489;28;20054;-49
2021/07/23 11:48:16;;;;;;;3.45;2.35;;;33.90;48.20;;;;;;5052807;28;20024;-49
2021/07/23 11:50:56;;;;;;;2.80;2.20;;;33.80;43.80;;;;;;5045620;28;20022;-48
2021/07/23 11:53:23;;;;;;;3.38;2.03;;;33.40;48.10;;;;;;5037648;28;20116;-47
2021/07/23 11:55:49;;;;;;;5.55;2.28;;;32.80;47.70;;;;;;5028878;28;20028;-47
2021/07/23 11:58:28;;;;;;;4.45;1.73;;;32.40;49.80;;;;;;5039805;28;20029;-48
2021/07/23 12:00:55;;;;;;;3.60;1.90;;;32.20;49.10;;;;;;5037199;28;20018;-50
2021/07/23 12:03:23;;;;;;;4.35;2.05;;;32.20;49.60;;;;;;5041957;28;20032;-47
2021/07/23 12:05:49;;;;;;;4.57;2.03;;;32.80;49.40;;;;;;5039412;28;20045;-48
2021/07/23 12:08:16;;;;;;;4.07;2.30;;;32.60;49.30;;;;;;5032050;28;20029;-48
2021/07/23 12:10:42;;;;;;;3.88;2.50;;;31.80;50.40;;;;;;5048306;28;20021;-48
2021/07/23 12:13:13;;;;;;;3.15;2.00;;;31.20;52.90;;;;;;5039137;28;20124;-48
2021/07/23 12:15:44;;;;;;;4.10;2.40;;;30.40;51.20;;;;;;5038166;28;20017;-49
2021/07/23 12:18:18;;;;;;;3.63;1.98;;;30.20;56.30;;;;;;5037829;28;20629;-48
2021/07/23 12:20:44;;;;;;;3.00;2.15;;;30.10;52.00;;;;;;5034675;28;20029;-47
2021/07/23 12:23:10;;;;;;;3.85;2.28;;;29.50;51.20;;;;;;5048879;28;20099;-47
2021/07/23 12:25:44;;;;;;;5.70;2.13;;;29.60;55.10;;;;;;5038902;28;20033;-47
2021/07/23 12:28:15;;;;;;;5.25;2.33;;;29.20;53.90;;;;;;5044238;28;20025;-48
2021/07/23 12:30:42;;;;;;;3.20;2.00;;;29.00;55.40;;;;;;5038859;28;20054;-47
2021/07/23 12:33:16;;;;;;;5.20;2.40;;;28.80;55.30;;;;;;5038219;28;20013;-47
2021/07/23 12:35:50;;;;;;;4.18;2.50;;;28.80;54.90;;;;;;5032683;28;20013;-47
2021/07/23 12:38:16;;;;;;;2.58;2.13;;;28.70;54.60;;;;;;5037581;28;20085;-46
2021/07/23 12:40:42;;;;;;;2.65;2.25;;;28.20;55.90;;;;;;5039445;28;20403;-46
2021/07/23 12:43:12;;;;;;;4.72;2.25;;;27.90;57.60;;;;;;5033283;28;20079;-47